sensor_id;sensor_type;location;lat;lon;timestamp;pressure;altitude;pressure_sealevel;temperature;humidity
19508;BME280;40157;42.566;27.526;2023-02-24T00:00:21;101529.88;;;9.85;72.93
19508;BME280;40157;42.566;27.526;2023-02-24T00:02:31;101517.59;;;9.84;73.04
19508;BME280;40157;42.566;27.526;2023-02-24T00:04:36;101532.66;;;9.91;73.09
19508;BME280;40157;42.566;27.526;2023-02-24T00:06:41;101489.03;;;9.64;73.27
19508;BME280;40157;42.566;27.526;2023-02-24T00:08:43;101462.28;;;9.45;73.03
19508;BME280;40157;42.566;27.526;2023-02-24T00:10:43;101514.66;;;9.73;72.82
19508;BME280;40157;42.566;27.526;2023-02-24T00:12:44;101480.03;;;9.56;73.04
19508;BME280;40157;42.566;27.526;2023-02-24T00:14:48;101480.03;;;9.56;73.18
19508;BME280;40157;42.566;27.526;2023-02-24T00:16:49;101530.69;;;9.84;73.04
19508;BME280;40157;42.566;27.526;2023-02-24T00:18:50;101521.81;;;9.78;73.16
19508;BME280;40157;42.566;27.526;2023-02-24T00:20:50;101528.94;;;9.82;72.97
19508;BME280;40157;42.566;27.526;2023-02-24T00:22:55;101504.22;;;9.74;73.01
19508;BME280;40157;42.566;27.526;2023-02-24T00:24:56;101478.41;;;9.58;72.97
19508;BME280;40157;42.566;27.526;2023-02-24T00:27:04;101466.63;;;9.45;73.06
19508;BME280;40157;42.566;27.526;2023-02-24T00:29:11;101492.50;;;9.63;73.11
19508;BME280;40157;42.566;27.526;2023-02-24T00:31:15;101495.84;;;9.59;72.71
19508;BME280;40157;42.566;27.526;2023-02-24T00:33:15;101486.03;;;9.52;72.90
19508;BME280;40157;42.566;27.526;2023-02-24T00:35:21;101505.41;;;9.57;73.01
19508;BME280;40157;42.566;27.526;2023-02-24T00:37:21;101487.56;;;9.45;72.88
19508;BME280;40157;42.566;27.526;2023-02-24T00:39:23;101475.25;;;9.42;72.88
19508;BME280;40157;42.566;27.526;2023-02-24T00:41:32;101497.38;;;9.52;73.19
19508;BME280;40157;42.566;27.526;2023-02-24T00:43:32;101484.69;;;9.37;72.84
19508;BME280;40157;42.566;27.526;2023-02-24T00:45:36;101486.47;;;9.38;73.11
19508;BME280;40157;42.566;27.526;2023-02-24T00:47:38;101435.00;;;9.12;73.20
19508;BME280;40157;42.566;27.526;2023-02-24T00:49:40;101464.19;;;9.24;73.26
19508;BME280;40157;42.566;27.526;2023-02-24T00:51:46;101459.81;;;9.23;73.50
19508;BME280;40157;42.566;27.526;2023-02-24T00:53:52;101475.69;;;9.29;73.40
19508;BME280;40157;42.566;27.526;2023-02-24T00:55:59;101386.88;;;8.81;73.75
19508;BME280;40157;42.566;27.526;2023-02-24T00:58:02;101464.22;;;9.25;73.53
19508;BME280;40157;42.566;27.526;2023-02-24T01:00:04;101436.25;;;8.97;73.91
19508;BME280;40157;42.566;27.526;2023-02-24T01:02:10;101458.44;;;9.08;74.02
19508;BME280;40157;42.566;27.526;2023-02-24T01:04:12;101453.84;;;9.01;74.21
19508;BME280;40157;42.566;27.526;2023-02-24T01:06:13;101440.59;;;8.97;74.28
19508;BME280;40157;42.566;27.526;2023-02-24T01:08:14;101444.25;;;9.02;74.34
19508;BME280;40157;42.566;27.526;2023-02-24T01:10:20;101398.53;;;8.65;74.23
19508;BME280;40157;42.566;27.526;2023-02-24T01:12:22;101435.16;;;8.91;74.39
19508;BME280;40157;42.566;27.526;2023-02-24T01:14:52;101451.13;;;8.98;74.51
19508;BME280;40157;42.566;27.526;2023-02-24T01:16:53;101455.94;;;8.87;74.46
19508;BME280;40157;42.566;27.526;2023-02-24T01:18:53;101445.56;;;8.89;74.42
19508;BME280;40157;42.566;27.526;2023-02-24T01:20:54;101379.59;;;8.46;74.58
19508;BME280;40157;42.566;27.526;2023-02-24T01:22:54;101441.06;;;8.85;74.74
19508;BME280;40157;42.566;27.526;2023-02-24T01:24:56;101435.84;;;8.85;74.78
19508;BME280;40157;42.566;27.526;2023-02-24T01:26:57;101375.50;;;8.53;74.80
19508;BME280;40157;42.566;27.526;2023-02-24T01:28:58;101417.25;;;8.77;74.95
19508;BME280;40157;42.566;27.526;2023-02-24T01:31:03;101403.88;;;8.68;75.01
19508;BME280;40157;42.566;27.526;2023-02-24T01:33:04;101405.41;;;8.61;74.81
19508;BME280;40157;42.566;27.526;2023-02-24T01:35:07;101437.28;;;8.77;74.98
19508;BME280;40157;42.566;27.526;2023-02-24T01:37:09;101429.28;;;8.72;74.94
19508;BME280;40157;42.566;27.526;2023-02-24T01:39:12;101437.25;;;8.75;75.00
19508;BME280;40157;42.566;27.526;2023-02-24T01:41:16;101430.09;;;8.69;74.86
19508;BME280;40157;42.566;27.526;2023-02-24T01:43:17;101414.84;;;8.58;74.80
19508;BME280;40157;42.566;27.526;2023-02-24T01:45:20;101411.97;;;8.50;74.67
19508;BME280;40157;42.566;27.526;2023-02-24T01:47:22;101401.94;;;8.38;74.81
19508;BME280;40157;42.566;27.526;2023-02-24T01:49:37;101424.09;;;8.48;74.57
19508;BME280;40157;42.566;27.526;2023-02-24T01:52:00;101419.47;;;8.42;74.34
19508;BME280;40157;42.566;27.526;2023-02-24T01:54:02;101393.53;;;8.23;74.44
19508;BME280;40157;42.566;27.526;2023-02-24T01:56:03;101395.03;;;8.16;74.61
19508;BME280;40157;42.566;27.526;2023-02-24T01:58:11;101424.81;;;8.21;74.56
19508;BME280;40157;42.566;27.526;2023-02-24T02:00:15;101415.25;;;8.22;74.85
19508;BME280;40157;42.566;27.526;2023-02-24T02:02:32;101389.03;;;7.94;74.79
19508;BME280;40157;42.566;27.526;2023-02-24T02:06:48;101412.59;;;7.97;74.75
19508;BME280;40157;42.566;27.526;2023-02-24T02:08:48;101404.56;;;7.91;74.86
19508;BME280;40157;42.566;27.526;2023-02-24T02:10:50;101373.72;;;7.58;74.82
19508;BME280;40157;42.566;27.526;2023-02-24T02:12:58;101397.50;;;7.66;75.52
19508;BME280;40157;42.566;27.526;2023-02-24T02:14:59;101384.41;;;7.65;75.49
19508;BME280;40157;42.566;27.526;2023-02-24T02:19:45;101389.50;;;7.62;76.38
19508;BME280;40157;42.566;27.526;2023-02-24T02:26:49;101366.94;;;7.41;76.58
19508;BME280;40157;42.566;27.526;2023-02-24T02:36:29;101347.19;;;7.25;76.97
19508;BME280;40157;42.566;27.526;2023-02-24T02:41:02;101360.31;;;7.27;77.21
19508;BME280;40157;42.566;27.526;2023-02-24T02:43:37;101370.34;;;7.38;77.36
19508;BME280;40157;42.566;27.526;2023-02-24T02:46:02;101372.75;;;7.34;77.16
19508;BME280;40157;42.566;27.526;2023-02-24T02:48:29;101371.88;;;7.33;77.13
19508;BME280;40157;42.566;27.526;2023-02-24T02:50:44;101359.22;;;7.21;77.35
19508;BME280;40157;42.566;27.526;2023-02-24T02:52:58;101339.91;;;7.16;77.24
19508;BME280;40157;42.566;27.526;2023-02-24T02:55:08;101326.00;;;6.95;77.67
19508;BME280;40157;42.566;27.526;2023-02-24T02:57:31;101349.50;;;7.17;77.54
19508;BME280;40157;42.566;27.526;2023-02-24T02:59:36;101331.56;;;7.04;77.75
19508;BME280;40157;42.566;27.526;2023-02-24T03:01:40;101373.28;;;7.25;77.77
19508;BME280;40157;42.566;27.526;2023-02-24T03:03:46;101343.19;;;7.12;77.86
19508;BME280;40157;42.566;27.526;2023-02-24T03:05:54;101344.63;;;7.04;78.43
19508;BME280;40157;42.566;27.526;2023-02-24T03:07:58;101329.56;;;6.97;78.40
19508;BME280;40157;42.566;27.526;2023-02-24T03:10:03;101361.84;;;7.21;78.82
19508;BME280;40157;42.566;27.526;2023-02-24T03:12:14;101299.69;;;6.89;78.95
19508;BME280;40157;42.566;27.526;2023-02-24T03:14:22;101353.16;;;7.22;79.12
19508;BME280;40157;42.566;27.526;2023-02-24T03:16:26;101304.44;;;6.99;79.10
19508;BME280;40157;42.566;27.526;2023-02-24T03:18:52;101349.03;;;7.28;79.29
19508;BME280;40157;42.566;27.526;2023-02-24T03:21:00;101338.50;;;7.25;79.18
19508;BME280;40157;42.566;27.526;2023-02-24T03:23:12;101331.44;;;7.22;78.97
19508;BME280;40157;42.566;27.526;2023-02-24T03:25:19;101294.00;;;6.99;79.22
19508;BME280;40157;42.566;27.526;2023-02-24T03:29:45;101338.25;;;7.41;79.12
19508;BME280;40157;42.566;27.526;2023-02-24T03:32:03;101307.13;;;7.23;79.28
19508;BME280;40157;42.566;27.526;2023-02-24T03:34:17;101343.59;;;7.44;79.45
19508;BME280;40157;42.566;27.526;2023-02-24T03:36:20;101310.69;;;7.25;79.15
19508;BME280;40157;42.566;27.526;2023-02-24T03:38:20;101333.03;;;7.41;79.27
19508;BME280;40157;42.566;27.526;2023-02-24T03:40:24;101323.25;;;7.35;79.02
19508;BME280;40157;42.566;27.526;2023-02-24T03:42:31;101328.47;;;7.35;79.04
19508;BME280;40157;42.566;27.526;2023-02-24T03:44:33;101241.41;;;6.87;78.75
19508;BME280;40157;42.566;27.526;2023-02-24T03:46:33;101342.75;;;7.45;78.87
19508;BME280;40157;42.566;27.526;2023-02-24T03:48:39;101329.84;;;7.48;78.77
19508;BME280;40157;42.566;27.526;2023-02-24T03:50:40;101317.03;;;7.32;78.66
19508;BME280;40157;42.566;27.526;2023-02-24T03:53:10;101337.50;;;7.44;78.83
19508;BME280;40157;42.566;27.526;2023-02-24T04:00:14;101315.38;;;7.34;79.22
19508;BME280;40157;42.566;27.526;2023-02-24T04:02:28;101323.84;;;7.28;79.32
19508;BME280;40157;42.566;27.526;2023-02-24T04:04:38;101264.06;;;6.89;79.65
19508;BME280;40157;42.566;27.526;2023-02-24T04:06:51;101320.25;;;7.25;79.73
19508;BME280;40157;42.566;27.526;2023-02-24T04:09:41;101325.34;;;7.21;79.87
19508;BME280;40157;42.566;27.526;2023-02-24T04:11:46;101284.19;;;6.92;80.13
19508;BME280;40157;42.566;27.526;2023-02-24T04:13:59;101310.97;;;7.10;80.09
19508;BME280;40157;42.566;27.526;2023-02-24T04:16:09;101317.19;;;7.14;80.10
19508;BME280;40157;42.566;27.526;2023-02-24T04:18:21;101340.97;;;7.21;79.83
19508;BME280;40157;42.566;27.526;2023-02-24T04:20:27;101321.13;;;7.25;79.97
19508;BME280;40157;42.566;27.526;2023-02-24T04:22:30;101314.66;;;7.15;79.79
19508;BME280;40157;42.566;27.526;2023-02-24T04:24:32;101293.66;;;7.12;79.90
19508;BME280;40157;42.566;27.526;2023-02-24T04:26:35;101298.19;;;7.16;79.68
19508;BME280;40157;42.566;27.526;2023-02-24T04:28:39;101292.13;;;7.17;79.67
19508;BME280;40157;42.566;27.526;2023-02-24T04:30:43;101284.50;;;7.22;79.64
19508;BME280;40157;42.566;27.526;2023-02-24T04:32:45;101284.91;;;7.10;79.65
19508;BME280;40157;42.566;27.526;2023-02-24T04:34:45;101303.19;;;7.33;79.88
19508;BME280;40157;42.566;27.526;2023-02-24T04:36:47;101289.94;;;7.28;79.70
19508;BME280;40157;42.566;27.526;2023-02-24T04:38:51;101296.28;;;7.35;79.85
19508;BME280;40157;42.566;27.526;2023-02-24T04:40:53;101303.50;;;7.42;79.56
19508;BME280;40157;42.566;27.526;2023-02-24T04:42:54;101282.31;;;7.33;79.62
19508;BME280;40157;42.566;27.526;2023-02-24T04:44:54;101287.81;;;7.40;79.79
19508;BME280;40157;42.566;27.526;2023-02-24T04:46:58;101260.41;;;7.29;80.04
19508;BME280;40157;42.566;27.526;2023-02-24T04:48:59;101290.66;;;7.47;79.89
19508;BME280;40157;42.566;27.526;2023-02-24T04:51:01;101274.56;;;7.36;80.01
19508;BME280;40157;42.566;27.526;2023-02-24T04:53:12;101270.34;;;7.38;79.84
19508;BME280;40157;42.566;27.526;2023-02-24T04:55:13;101291.91;;;7.56;79.95
19508;BME280;40157;42.566;27.526;2023-02-24T04:57:16;101286.78;;;7.59;80.06
19508;BME280;40157;42.566;27.526;2023-02-24T04:59:18;101286.06;;;7.64;79.81
19508;BME280;40157;42.566;27.526;2023-02-24T05:01:19;101274.31;;;7.52;79.94
19508;BME280;40157;42.566;27.526;2023-02-24T05:03:21;101287.91;;;7.66;79.97
19508;BME280;40157;42.566;27.526;2023-02-24T05:05:23;101278.34;;;7.67;80.06
19508;BME280;40157;42.566;27.526;2023-02-24T05:07:27;101268.53;;;7.59;79.97
19508;BME280;40157;42.566;27.526;2023-02-24T05:09:28;101249.09;;;7.51;80.11
19508;BME280;40157;42.566;27.526;2023-02-24T05:11:29;101267.84;;;7.65;80.03
19508;BME280;40157;42.566;27.526;2023-02-24T05:13:33;101261.75;;;7.65;80.09
19508;BME280;40157;42.566;27.526;2023-02-24T05:15:40;101282.25;;;7.78;80.08
19508;BME280;40157;42.566;27.526;2023-02-24T05:17:42;101288.47;;;7.82;80.06
19508;BME280;40157;42.566;27.526;2023-02-24T05:19:42;101270.81;;;7.74;80.05
19508;BME280;40157;42.566;27.526;2023-02-24T05:22:01;101285.34;;;8.16;85.37
19508;BME280;40157;42.566;27.526;2023-02-24T05:24:03;101253.91;;;8.13;85.02
19508;BME280;40157;42.566;27.526;2023-02-24T05:26:07;101283.47;;;8.38;83.34
19508;BME280;40157;42.566;27.526;2023-02-24T05:28:08;101286.16;;;8.41;81.98
19508;BME280;40157;42.566;27.526;2023-02-24T05:30:09;101217.00;;;8.04;80.87
19508;BME280;40157;42.566;27.526;2023-02-24T05:32:10;101253.66;;;8.32;80.32
19508;BME280;40157;42.566;27.526;2023-02-24T05:34:11;101305.16;;;8.61;79.67
19508;BME280;40157;42.566;27.526;2023-02-24T05:36:17;101294.94;;;8.67;79.44
19508;BME280;40157;42.566;27.526;2023-02-24T05:38:18;101295.13;;;8.73;78.75
19508;BME280;40157;42.566;27.526;2023-02-24T05:40:21;101280.13;;;8.67;78.36
19508;BME280;40157;42.566;27.526;2023-02-24T05:42:25;101296.88;;;8.74;78.34
19508;BME280;40157;42.566;27.526;2023-02-24T05:44:26;101296.28;;;8.81;78.11
19508;BME280;40157;42.566;27.526;2023-02-24T05:46:29;101304.28;;;8.86;77.97
19508;BME280;40157;42.566;27.526;2023-02-24T05:48:33;101314.09;;;8.93;77.79
19508;BME280;40157;42.566;27.526;2023-02-24T05:50:35;101303.72;;;8.96;77.66
19508;BME280;40157;42.566;27.526;2023-02-24T05:52:38;101312.28;;;8.92;77.84
19508;BME280;40157;42.566;27.526;2023-02-24T05:54:42;101291.97;;;8.83;77.68
19508;BME280;40157;42.566;27.526;2023-02-24T05:56:44;101305.53;;;8.99;77.69
19508;BME280;40157;42.566;27.526;2023-02-24T05:58:44;101308.31;;;9.03;77.66
19508;BME280;40157;42.566;27.526;2023-02-24T06:00:45;101280.91;;;8.92;77.56
19508;BME280;40157;42.566;27.526;2023-02-24T06:02:46;101318.41;;;9.20;77.08
19508;BME280;40157;42.566;27.526;2023-02-24T06:04:49;101312.44;;;9.24;77.01
19508;BME280;40157;42.566;27.526;2023-02-24T06:06:49;101288.41;;;9.08;77.18
19508;BME280;40157;42.566;27.526;2023-02-24T06:08:53;101310.38;;;9.71;86.18
19508;BME280;40157;42.566;27.526;2023-02-24T06:10:55;101284.06;;;9.98;87.67
19508;BME280;40157;42.566;27.526;2023-02-24T06:12:56;101278.53;;;9.88;83.69
19508;BME280;40157;42.566;27.526;2023-02-24T06:14:57;101333.84;;;9.98;81.03
19508;BME280;40157;42.566;27.526;2023-02-24T06:16:57;101278.75;;;9.65;79.77
19508;BME280;40157;42.566;27.526;2023-02-24T06:19:02;101300.81;;;9.73;78.16
19508;BME280;40157;42.566;27.526;2023-02-24T06:21:04;101270.47;;;9.50;77.50
19508;BME280;40157;42.566;27.526;2023-02-24T06:23:06;101298.00;;;9.67;77.46
19508;BME280;40157;42.566;27.526;2023-02-24T06:25:08;101304.22;;;9.69;77.19
19508;BME280;40157;42.566;27.526;2023-02-24T06:27:13;101271.22;;;9.45;77.63
19508;BME280;40157;42.566;27.526;2023-02-24T06:29:17;101289.00;;;9.57;77.76
19508;BME280;40157;42.566;27.526;2023-02-24T06:31:18;101313.09;;;9.74;77.98
19508;BME280;40157;42.566;27.526;2023-02-24T06:33:20;101308.69;;;9.73;77.93
19508;BME280;40157;42.566;27.526;2023-02-24T06:35:21;101313.00;;;9.71;78.17
19508;BME280;40157;42.566;27.526;2023-02-24T06:37:22;101284.69;;;9.58;78.24
19508;BME280;40157;42.566;27.526;2023-02-24T06:39:22;101313.00;;;9.71;78.44
19508;BME280;40157;42.566;27.526;2023-02-24T06:41:23;101321.88;;;9.76;78.44
19508;BME280;40157;42.566;27.526;2023-02-24T06:43:23;101314.84;;;9.75;78.78
19508;BME280;40157;42.566;27.526;2023-02-24T06:45:24;101326.31;;;9.80;78.51
19508;BME280;40157;42.566;27.526;2023-02-24T06:47:25;101307.91;;;9.77;78.76
19508;BME280;40157;42.566;27.526;2023-02-24T06:49:26;101323.16;;;9.92;78.75
19508;BME280;40157;42.566;27.526;2023-02-24T06:51:27;101328.50;;;9.95;78.80
19508;BME280;40157;42.566;27.526;2023-02-24T06:53:29;101305.53;;;9.85;78.76
19508;BME280;40157;42.566;27.526;2023-02-24T06:55:33;101321.72;;;10.02;78.60
19508;BME280;40157;42.566;27.526;2023-02-24T06:57:35;101317.38;;;10.04;78.56
19508;BME280;40157;42.566;27.526;2023-02-24T06:59:35;101299.81;;;10.00;78.53
19508;BME280;40157;42.566;27.526;2023-02-24T07:01:37;101290.31;;;10.04;78.46
19508;BME280;40157;42.566;27.526;2023-02-24T07:03:45;101307.34;;;10.19;78.38
19508;BME280;40157;42.566;27.526;2023-02-24T07:06:09;101300.28;;;10.17;78.35
19508;BME280;40157;42.566;27.526;2023-02-24T07:08:24;101306.53;;;10.22;78.29
19508;BME280;40157;42.566;27.526;2023-02-24T07:10:26;101254.38;;;9.98;78.40
19508;BME280;40157;42.566;27.526;2023-02-24T07:12:26;101301.66;;;10.34;78.38
19508;BME280;40157;42.566;27.526;2023-02-24T07:14:27;101291.97;;;10.32;78.24
19508;BME280;40157;42.566;27.526;2023-02-24T07:16:31;101306.25;;;10.43;78.04
19508;BME280;40157;42.566;27.526;2023-02-24T07:18:33;101316.88;;;10.48;78.00
19508;BME280;40157;42.566;27.526;2023-02-24T07:20:40;101277.22;;;10.35;77.36
19508;BME280;40157;42.566;27.526;2023-02-24T07:22:46;101264.81;;;10.30;77.38
19508;BME280;40157;42.566;27.526;2023-02-24T07:24:47;101237.59;;;10.25;77.53
19508;BME280;40157;42.566;27.526;2023-02-24T07:26:47;101289.19;;;10.59;77.37
19508;BME280;40157;42.566;27.526;2023-02-24T07:28:52;101272.38;;;10.51;76.98
19508;BME280;40157;42.566;27.526;2023-02-24T07:30:54;101275.75;;;10.47;76.56
19508;BME280;40157;42.566;27.526;2023-02-24T07:32:55;101244.97;;;10.38;76.26
19508;BME280;40157;42.566;27.526;2023-02-24T07:34:56;101268.78;;;10.47;75.57
19508;BME280;40157;42.566;27.526;2023-02-24T07:36:59;101270.69;;;10.53;75.72
19508;BME280;40157;42.566;27.526;2023-02-24T07:39:01;101212.28;;;10.25;75.90
19508;BME280;40157;42.566;27.526;2023-02-24T07:41:04;101271.81;;;10.63;76.04
19508;BME280;40157;42.566;27.526;2023-02-24T07:43:05;101225.72;;;10.36;76.37
19508;BME280;40157;42.566;27.526;2023-02-24T07:45:07;101228.53;;;10.45;76.33
19508;BME280;40157;42.566;27.526;2023-02-24T07:47:07;101273.63;;;10.67;75.99
19508;BME280;40157;42.566;27.526;2023-02-24T07:49:12;101204.59;;;10.31;75.78
19508;BME280;40157;42.566;27.526;2023-02-24T07:51:16;101263.91;;;10.61;75.31
19508;BME280;40157;42.566;27.526;2023-02-24T07:53:16;101228.63;;;10.48;75.23
19508;BME280;40157;42.566;27.526;2023-02-24T07:55:18;101253.56;;;10.69;75.30
19508;BME280;40157;42.566;27.526;2023-02-24T07:57:19;101213.81;;;10.50;75.47
19508;BME280;40157;42.566;27.526;2023-02-24T07:59:19;101231.47;;;10.58;74.21
19508;BME280;40157;42.566;27.526;2023-02-24T08:01:21;101258.06;;;10.73;73.65
19508;BME280;40157;42.566;27.526;2023-02-24T08:03:27;101260.84;;;10.81;73.34
19508;BME280;40157;42.566;27.526;2023-02-24T08:05:29;101240.41;;;10.66;72.85
19508;BME280;40157;42.566;27.526;2023-02-24T08:07:29;101256.44;;;10.78;72.58
19508;BME280;40157;42.566;27.526;2023-02-24T08:09:33;101266.03;;;10.78;72.33
19508;BME280;40157;42.566;27.526;2023-02-24T08:12:06;101245.06;;;10.78;72.04
19508;BME280;40157;42.566;27.526;2023-02-24T08:14:07;101249.63;;;10.86;72.25
19508;BME280;40157;42.566;27.526;2023-02-24T08:16:12;101222.16;;;10.70;71.92
19508;BME280;40157;42.566;27.526;2023-02-24T08:18:13;101223.09;;;10.74;72.17
19508;BME280;40157;42.566;27.526;2023-02-24T08:20:14;101235.66;;;10.86;70.85
19508;BME280;40157;42.566;27.526;2023-02-24T08:22:15;101247.94;;;10.88;70.18
19508;BME280;40157;42.566;27.526;2023-02-24T08:24:20;101232.00;;;10.79;70.65
19508;BME280;40157;42.566;27.526;2023-02-24T08:26:23;101239.13;;;10.86;70.50
19508;BME280;40157;42.566;27.526;2023-02-24T08:28:29;101245.22;;;10.85;70.88
19508;BME280;40157;42.566;27.526;2023-02-24T08:30:32;101240.84;;;10.84;70.93
19508;BME280;40157;42.566;27.526;2023-02-24T08:32:40;101215.94;;;10.67;71.36
19508;BME280;40157;42.566;27.526;2023-02-24T08:34:46;101224.81;;;10.72;71.57
19508;BME280;40157;42.566;27.526;2023-02-24T08:36:50;101210.63;;;10.64;70.72
19508;BME280;40157;42.566;27.526;2023-02-24T08:38:54;101223.25;;;10.80;70.02
19508;BME280;40157;42.566;27.526;2023-02-24T08:40:58;101210.69;;;10.67;70.54
19508;BME280;40157;42.566;27.526;2023-02-24T08:43:13;101225.94;;;10.83;70.95
19508;BME280;40157;42.566;27.526;2023-02-24T08:45:16;101200.22;;;10.67;71.26
19508;BME280;40157;42.566;27.526;2023-02-24T08:47:17;101170.19;;;10.54;71.00
19508;BME280;40157;42.566;27.526;2023-02-24T08:49:21;101204.84;;;10.79;71.23
19508;BME280;40157;42.566;27.526;2023-02-24T08:51:32;101198.72;;;10.78;71.19
19508;BME280;40157;42.566;27.526;2023-02-24T08:53:37;101217.47;;;10.95;71.09
19508;BME280;40157;42.566;27.526;2023-02-24T08:55:39;101214.72;;;10.90;70.84
19508;BME280;40157;42.566;27.526;2023-02-24T08:57:40;101209.50;;;10.90;70.93
19508;BME280;40157;42.566;27.526;2023-02-24T08:59:50;101156.28;;;10.57;70.47
19508;BME280;40157;42.566;27.526;2023-02-24T09:01:58;101186.50;;;10.79;70.69
19508;BME280;40157;42.566;27.526;2023-02-24T09:04:33;101214.88;;;10.97;70.66
19508;BME280;40157;42.566;27.526;2023-02-24T09:06:55;101205.38;;;11.02;70.60
19508;BME280;40157;42.566;27.526;2023-02-24T09:08:57;101176.25;;;10.89;70.35
19508;BME280;40157;42.566;27.526;2023-02-24T09:11:16;101192.31;;;11.05;70.33
19508;BME280;40157;42.566;27.526;2023-02-24T09:13:16;101159.72;;;10.93;70.18
19508;BME280;40157;42.566;27.526;2023-02-24T09:15:18;101163.44;;;11.03;69.94
19508;BME280;40157;42.566;27.526;2023-02-24T09:17:21;101206.00;;;11.31;69.70
19508;BME280;40157;42.566;27.526;2023-02-24T09:21:39;101148.06;;;11.22;69.26
19508;BME280;40157;42.566;27.526;2023-02-24T09:23:49;101189.84;;;11.55;69.13
19508;BME280;40157;42.566;27.526;2023-02-24T09:25:49;101186.38;;;11.56;69.11
19508;BME280;40157;42.566;27.526;2023-02-24T09:27:53;101167.94;;;11.53;68.82
19508;BME280;40157;42.566;27.526;2023-02-24T09:30:08;101156.53;;;11.51;68.85
19508;BME280;40157;42.566;27.526;2023-02-24T09:32:24;101167.38;;;11.70;68.45
19508;BME280;40157;42.566;27.526;2023-02-24T09:34:27;101171.09;;;11.81;68.05
19508;BME280;40157;42.566;27.526;2023-02-24T09:36:38;101179.22;;;11.93;67.27
19508;BME280;40157;42.566;27.526;2023-02-24T09:38:49;101178.47;;;12.00;67.37
19508;BME280;40157;42.566;27.526;2023-02-24T09:41:01;101175.00;;;12.01;66.69
19508;BME280;40157;42.566;27.526;2023-02-24T09:43:11;101169.91;;;12.12;66.21
19508;BME280;40157;42.566;27.526;2023-02-24T09:45:21;101181.44;;;12.20;66.44
19508;BME280;40157;42.566;27.526;2023-02-24T09:47:41;101173.69;;;12.28;67.07
19508;BME280;40157;42.566;27.526;2023-02-24T09:49:56;101159.81;;;12.38;67.03
19508;BME280;40157;42.566;27.526;2023-02-24T09:51:58;101166.97;;;12.46;66.12
19508;BME280;40157;42.566;27.526;2023-02-24T09:54:18;101163.56;;;12.53;66.11
19508;BME280;40157;42.566;27.526;2023-02-24T09:56:47;101159.22;;;12.56;65.61
19508;BME280;40157;42.566;27.526;2023-02-24T09:58:59;101160.16;;;12.60;64.61
19508;BME280;40157;42.566;27.526;2023-02-24T10:03:39;101131.06;;;12.49;64.91
19508;BME280;40157;42.566;27.526;2023-02-24T10:06:03;101144.44;;;12.65;65.57
19508;BME280;40157;42.566;27.526;2023-02-24T10:08:15;101125.25;;;12.72;64.70
19508;BME280;40157;42.566;27.526;2023-02-24T10:10:27;101135.94;;;12.83;65.02
19508;BME280;40157;42.566;27.526;2023-02-24T10:12:32;101123.78;;;12.92;65.20
19508;BME280;40157;42.566;27.526;2023-02-24T10:15:20;101130.09;;;13.07;63.55
19508;BME280;40157;42.566;27.526;2023-02-24T10:17:32;101124.97;;;13.18;62.80
19508;BME280;40157;42.566;27.526;2023-02-24T10:19:39;101112.72;;;13.21;62.18
19508;BME280;40157;42.566;27.526;2023-02-24T10:22:02;101095.97;;;13.14;62.93
19508;BME280;40157;42.566;27.526;2023-02-24T10:24:11;101104.88;;;13.26;63.31
19508;BME280;40157;42.566;27.526;2023-02-24T10:26:24;101104.09;;;13.33;63.03
19508;BME280;40157;42.566;27.526;2023-02-24T10:28:44;101105.91;;;13.40;63.10
19508;BME280;40157;42.566;27.526;2023-02-24T10:31:09;101100.75;;;13.49;62.81
19508;BME280;40157;42.566;27.526;2023-02-24T10:33:29;101093.84;;;13.59;62.23
19508;BME280;40157;42.566;27.526;2023-02-24T10:35:33;101058.59;;;13.46;61.27
19508;BME280;40157;42.566;27.526;2023-02-24T10:37:35;101018.84;;;13.26;61.58
19508;BME280;40157;42.566;27.526;2023-02-24T10:39:36;101064.03;;;13.65;60.64
19508;BME280;40157;42.566;27.526;2023-02-24T10:41:49;101086.16;;;13.87;60.21
19508;BME280;40157;42.566;27.526;2023-02-24T10:43:57;101088.78;;;13.85;60.16
19508;BME280;40157;42.566;27.526;2023-02-24T10:46:01;101057.03;;;13.68;59.97
19508;BME280;40157;42.566;27.526;2023-02-24T10:48:23;101072.94;;;13.78;60.13
19508;BME280;40157;42.566;27.526;2023-02-24T10:52:31;101065.06;;;13.85;62.29
19508;BME280;40157;42.566;27.526;2023-02-24T10:54:36;101010.44;;;13.61;61.68
19508;BME280;40157;42.566;27.526;2023-02-24T10:56:55;101046.75;;;14.02;61.46
19508;BME280;40157;42.566;27.526;2023-02-24T10:59:22;101038.94;;;14.16;59.36
19508;BME280;40157;42.566;27.526;2023-02-24T11:02:16;101061.97;;;14.45;60.95
19508;BME280;40157;42.566;27.526;2023-02-24T11:04:33;101037.34;;;14.46;59.56
19508;BME280;40157;42.566;27.526;2023-02-24T11:06:43;101041.78;;;14.53;59.15
19508;BME280;40157;42.566;27.526;2023-02-24T11:11:33;101017.28;;;14.73;57.66
19508;BME280;40157;42.566;27.526;2023-02-24T11:13:53;101047.28;;;14.99;57.46
19508;BME280;40157;42.566;27.526;2023-02-24T11:16:13;101031.47;;;15.06;58.43
19508;BME280;40157;42.566;27.526;2023-02-24T11:18:32;101045.59;;;15.29;57.46
19508;BME280;40157;42.566;27.526;2023-02-24T11:22:40;101041.22;;;15.56;55.55
19508;BME280;40157;42.566;27.526;2023-02-24T11:24:44;101037.72;;;15.72;55.74
19508;BME280;40157;42.566;27.526;2023-02-24T11:26:45;101002.47;;;15.64;54.39
19508;BME280;40157;42.566;27.526;2023-02-24T11:33:56;101021.84;;;16.03;52.78
19508;BME280;40157;42.566;27.526;2023-02-24T11:35:57;101012.16;;;16.02;52.29
19508;BME280;40157;42.566;27.526;2023-02-24T11:38:21;101005.09;;;16.01;52.13
19508;BME280;40157;42.566;27.526;2023-02-24T11:40:31;100866.00;;;15.12;52.13